createdAt,value
2017-03-07T00:00:02.843Z,7.26
2017-03-07T00:01:02.064Z,7.32
2017-03-07T00:02:02.906Z,7.23
2017-03-07T00:03:02.545Z,7.26
2017-03-07T00:04:02.964Z,7.4
2017-03-07T00:05:02.203Z,7.37
2017-03-07T00:06:02.241Z,7.38
2017-03-07T00:07:03.056Z,7.38
2017-03-07T00:08:02.684Z,7.34
2017-03-07T00:09:02.369Z,7.4
2017-03-07T00:10:02.771Z,7.45
2017-03-07T00:11:03.187Z,7.42
2017-03-07T00:12:02.855Z,7.44
2017-03-07T00:13:02.471Z,7.44
2017-03-07T00:14:02.898Z,7.42
2017-03-07T00:15:02.936Z,7.5
2017-03-07T00:16:03.367Z,7.49
2017-03-07T00:17:02.606Z,7.58
2017-03-07T00:18:03.443Z,7.62
2017-03-07T00:19:03.069Z,7.53
2017-03-07T00:20:02.715Z,7.55
2017-03-07T00:21:03.132Z,7.47
2017-03-07T00:22:03.170Z,7.45
2017-03-07T00:23:02.820Z,7.45
2017-03-07T00:24:03.237Z,7.5
2017-03-07T00:25:03.659Z,7.53
2017-03-07T00:26:03.304Z,7.55
2017-03-07T00:27:02.938Z,7.47
2017-03-07T00:28:03.766Z,7.5
2017-03-07T00:29:03.018Z,7.37
2017-03-07T00:30:03.054Z,7.49
2017-03-07T00:31:03.874Z,7.45
2017-03-07T00:32:03.899Z,7.5
2017-03-07T00:33:03.553Z,7.49
2017-03-07T00:34:03.965Z,7.45
2017-03-07T00:35:03.624Z,7.53
2017-03-07T00:36:03.659Z,7.5
2017-03-07T00:37:03.687Z,7.5
2017-03-07T00:38:03.718Z,7.5
2017-03-07T00:39:03.731Z,7.49
2017-03-07T00:40:04.173Z,7.44
2017-03-07T00:41:03.813Z,7.42
2017-03-07T00:42:03.446Z,7.41
2017-03-07T00:43:04.272Z,7.37
2017-03-07T00:44:03.918Z,7.34
2017-03-07T00:45:03.588Z,7.35
2017-03-07T00:46:03.986Z,7.32
2017-03-07T00:47:04.019Z,7.29
2017-03-07T00:48:03.648Z,7.27
2017-03-07T00:49:03.693Z,7.29
2017-03-07T00:50:04.512Z,7.23
2017-03-07T00:51:03.758Z,7.31
2017-03-07T00:52:04.183Z,7.29
2017-03-07T00:53:04.205Z,7.26
2017-03-07T00:54:04.633Z,7.26
2017-03-07T00:55:04.288Z,7.26
2017-03-07T00:56:04.725Z,7.34
2017-03-07T00:57:04.744Z,7.31
2017-03-07T00:58:04.784Z,7.31
2017-03-07T00:59:04.425Z,7.26
2017-03-07T01:00:04.473Z,7.37
2017-03-07T01:01:04.482Z,7.26
2017-03-07T01:02:04.527Z,7.31
2017-03-07T01:03:04.161Z,7.26
2017-03-07T01:04:04.595Z,7.31
2017-03-07T01:05:04.608Z,7.27
2017-03-07T01:06:04.651Z,7.22
2017-03-07T01:07:04.689Z,7.29
2017-03-07T01:08:05.106Z,7.26
2017-03-07T01:09:04.770Z,7.23
2017-03-07T01:10:05.182Z,7.22
2017-03-07T01:11:04.828Z,7.13
2017-03-07T01:12:05.239Z,7.35
2017-03-07T01:13:04.918Z,7.2
2017-03-07T01:14:05.326Z,7.22
2017-03-07T01:15:04.957Z,7.19
2017-03-07T01:16:04.995Z,7.26
2017-03-07T01:17:05.423Z,7.17
2017-03-07T01:18:05.071Z,7.17
2017-03-07T01:19:05.098Z,7.19
2017-03-07T01:20:05.142Z,7.27
2017-03-07T01:21:04.784Z,7.27
2017-03-07T01:22:04.806Z,7.37
2017-03-07T01:23:05.137Z,7.35
2017-03-07T01:24:05.654Z,7.26
2017-03-07T01:25:04.913Z,7.37
2017-03-07T01:26:05.339Z,7.37
2017-03-07T01:27:04.987Z,7.34
2017-03-07T01:28:05.015Z,7.29
2017-03-07T01:29:05.434Z,7.23
2017-03-07T01:30:05.471Z,7.2
2017-03-07T01:31:05.498Z,7.32
2017-03-07T01:32:05.553Z,7.19
2017-03-07T01:33:05.559Z,7.27
2017-03-07T01:34:06.001Z,7.23
2017-03-07T01:35:06.028Z,7.2
2017-03-07T01:36:05.657Z,7.22
2017-03-07T01:37:05.307Z,7.26
2017-03-07T01:38:05.744Z,7.34
2017-03-07T01:39:06.149Z,7.23
2017-03-07T01:40:05.819Z,7.41
2017-03-07T01:41:05.446Z,7.35
2017-03-07T01:42:05.858Z,7.27
2017-03-07T01:43:05.516Z,7.26
2017-03-07T01:44:05.942Z,7.37
2017-03-07T01:45:06.382Z,7.29
2017-03-07T01:46:06.004Z,7.27
2017-03-07T01:47:06.444Z,7.29
2017-03-07T01:48:06.472Z,7.29
2017-03-07T01:49:05.716Z,7.31
2017-03-07T01:50:06.146Z,7.26
2017-03-07T01:51:05.787Z,7.29
2017-03-07T01:52:06.212Z,7.34
2017-03-07T01:53:06.241Z,7.34
2017-03-07T01:54:06.278Z,7.31
2017-03-07T01:55:06.306Z,7.4
2017-03-07T01:56:06.402Z,7.35
2017-03-07T01:57:06.384Z,7.31
2017-03-07T01:58:06.810Z,7.31
2017-03-07T01:59:06.450Z,7.31
2017-03-07T02:00:06.489Z,7.27
2017-03-07T02:01:06.124Z,7.31
2017-03-07T02:02:06.540Z,7.24
2017-03-07T02:03:06.586Z,7.35
2017-03-07T02:04:07.020Z,7.35
2017-03-07T02:05:06.261Z,7.23
2017-03-07T02:06:06.717Z,7.34
2017-03-07T02:07:07.120Z,7.32
2017-03-07T02:08:06.743Z,7.31
2017-03-07T02:09:06.794Z,7.26
2017-03-07T02:10:06.836Z,7.29
2017-03-07T02:11:06.456Z,7.32
2017-03-07T02:12:06.501Z,7.27
2017-03-07T02:13:06.917Z,7.41
2017-03-07T02:14:06.954Z,7.29
2017-03-07T02:15:06.989Z,7.29
2017-03-07T02:16:06.625Z,7.37
2017-03-07T02:17:07.460Z,7.26
2017-03-07T02:18:07.089Z,7.29
2017-03-07T02:19:07.564Z,7.32
2017-03-07T02:20:07.548Z,7.27
2017-03-07T02:21:06.795Z,7.26
2017-03-07T02:22:07.234Z,7.27
2017-03-07T02:23:07.641Z,7.32
2017-03-07T02:24:07.726Z,7.31
2017-03-07T02:25:07.344Z,7.29
2017-03-07T02:26:07.390Z,7.34
2017-03-07T02:37:27.751Z,7.16
2017-03-07T02:38:17.128Z,7.23
2017-03-07T02:39:17.179Z,7.29
2017-03-07T02:40:17.981Z,7.19
2017-03-07T02:41:17.464Z,7.29
2017-03-07T02:42:17.263Z,7.27
2017-03-07T02:43:17.301Z,7.26
2017-03-07T02:44:17.726Z,7.22
2017-03-07T02:45:17.755Z,7.31
2017-03-07T02:46:17.405Z,7.37
2017-03-07T02:47:18.227Z,7.23
2017-03-07T02:48:17.469Z,7.31
2017-03-07T02:49:17.899Z,7.35
2017-03-07T02:50:18.323Z,7.31
2017-03-07T02:51:17.959Z,7.31
2017-03-07T02:52:17.597Z,7.26
2017-03-07T02:53:18.428Z,7.22
2017-03-07T02:54:18.470Z,7.27
2017-03-07T02:55:18.097Z,7.15
2017-03-07T02:56:17.740Z,7.26
2017-03-07T02:57:18.169Z,7.29
2017-03-07T02:58:18.204Z,7.23
2017-03-07T02:59:18.234Z,7.12
2017-03-07T03:00:18.258Z,7.13
2017-03-07T03:01:18.305Z,7.07
2017-03-07T03:02:17.955Z,7.29
2017-03-07T03:03:18.374Z,7.22
2017-03-07T03:04:18.000Z,7.2
2017-03-07T03:05:18.052Z,7.26
2017-03-07T03:06:18.081Z,7.19
2017-03-07T03:07:18.501Z,7.2
2017-03-07T03:08:18.140Z,7.17
2017-03-07T03:09:18.174Z,7.24
2017-03-07T03:10:18.221Z,7.27
2017-03-07T03:11:18.817Z,7.24
2017-03-07T03:12:18.276Z,7.26
2017-03-07T03:13:19.108Z,7.26
2017-03-07T03:14:19.130Z,7.29
2017-03-07T03:15:18.768Z,7.31
2017-03-07T03:16:19.197Z,7.29
2017-03-07T03:17:18.840Z,7.32
2017-03-07T03:18:19.280Z,7.23
2017-03-07T03:19:19.309Z,7.26
2017-03-07T03:20:18.945Z,7.27
2017-03-07T03:21:18.989Z,7.29
2017-03-07T03:22:19.400Z,7.34
2017-03-07T03:23:18.658Z,7.23
2017-03-07T03:24:18.682Z,7.29
2017-03-07T03:25:18.706Z,7.26
2017-03-07T03:26:19.160Z,7.32
2017-03-07T03:27:18.800Z,7.32
2017-03-07T03:28:18.819Z,7.24
2017-03-07T03:29:19.257Z,7.31
2017-03-07T03:30:18.892Z,7.27
2017-03-07T03:31:18.935Z,7.31
2017-03-07T03:32:19.336Z,7.23
2017-03-07T03:33:19.377Z,7.29
2017-03-07T03:34:19.400Z,7.24
2017-03-07T03:35:19.446Z,7.32
2017-03-07T03:36:19.085Z,7.24
2017-03-07T03:37:19.119Z,7.34
2017-03-07T03:38:19.951Z,7.31
2017-03-07T03:39:19.598Z,7.32
2017-03-07T03:40:19.613Z,7.29
2017-03-07T03:41:19.642Z,7.32
2017-03-07T03:42:19.691Z,7.27
2017-03-07T03:43:20.114Z,7.31
2017-03-07T03:44:19.361Z,7.31
2017-03-07T03:45:19.395Z,7.35
2017-03-07T03:46:19.815Z,7.41
2017-03-07T03:47:19.451Z,7.38
2017-03-07T03:48:19.495Z,7.35
2017-03-07T03:49:19.533Z,7.37
2017-03-07T03:50:19.953Z,7.27
2017-03-07T03:51:20.382Z,7.4
2017-03-07T03:52:19.641Z,7.38
2017-03-07T03:53:20.056Z,7.34
2017-03-07T03:54:20.507Z,7.29
2017-03-07T03:55:20.114Z,7.4
2017-03-07T03:56:20.155Z,7.4
2017-03-07T03:57:19.802Z,7.37
2017-03-07T03:58:19.838Z,7.27
2017-03-07T03:59:19.872Z,7.37
2017-03-07T04:00:20.688Z,7.24
2017-03-07T04:01:20.323Z,7.27
2017-03-07T04:02:20.369Z,7.42
2017-03-07T04:03:20.409Z,7.4
2017-03-07T04:04:20.424Z,7.26
2017-03-07T04:05:20.855Z,7.35
2017-03-07T04:06:20.497Z,7.27
2017-03-07T04:07:20.926Z,7.27
2017-03-07T04:08:20.162Z,7.34
2017-03-07T04:09:20.633Z,7.2
2017-03-07T04:10:20.623Z,7.23
2017-03-07T04:11:20.658Z,7.23
2017-03-07T04:12:20.697Z,7.17
2017-03-07T04:13:20.358Z,7.23
2017-03-07T04:14:20.757Z,7.29
2017-03-07T04:15:20.798Z,7.09
2017-03-07T04:16:20.438Z,7.15
2017-03-07T04:17:20.857Z,7.19
2017-03-07T04:18:20.911Z,7.24
2017-03-07T04:19:21.313Z,7.23
2017-03-07T04:20:20.961Z,7.23
2017-03-07T04:21:20.990Z,7.15
2017-03-07T04:22:21.041Z,7.26
2017-03-07T04:23:20.670Z,7.22
2017-03-07T04:24:21.116Z,7.12
2017-03-07T04:25:21.147Z,7.13
2017-03-07T04:26:20.778Z,7.13
2017-03-07T04:27:21.203Z,7.23
2017-03-07T04:28:20.857Z,7.2
2017-03-07T04:29:21.290Z,7.23
2017-03-07T04:30:21.297Z,7.15
2017-03-07T04:31:20.945Z,7.09
2017-03-07T04:32:20.989Z,7.12
2017-03-07T04:33:21.396Z,7.26
2017-03-07T04:34:21.438Z,7.22
2017-03-07T04:35:21.467Z,7.19
2017-03-07T04:36:21.511Z,7.13
2017-03-07T04:37:21.145Z,7.16
2017-03-07T04:38:21.561Z,7.2
2017-03-07T04:39:21.224Z,7.16
2017-03-07T04:40:21.643Z,7.13
2017-03-07T04:41:21.668Z,7.08
2017-03-07T04:42:21.714Z,7.22
2017-03-07T04:43:22.125Z,7.19
2017-03-07T04:44:21.764Z,7.27
2017-03-07T04:45:21.410Z,7.17
2017-03-07T04:46:21.442Z,7.22
2017-03-07T04:47:21.875Z,7.12
2017-03-07T04:48:21.512Z,7.23
2017-03-07T04:49:21.543Z,7.22
2017-03-07T04:50:21.974Z,7.23
2017-03-07T04:51:22.022Z,7.26
2017-03-07T04:52:22.437Z,7.27
2017-03-07T04:53:22.069Z,7.17
2017-03-07T04:54:22.109Z,7.23
2017-03-07T04:55:21.748Z,7.2
2017-03-07T04:56:22.580Z,7.09
2017-03-07T04:57:22.210Z,7.24
2017-03-07T04:58:21.862Z,7.2
2017-03-07T04:59:22.277Z,7.13
2017-03-07T05:00:22.308Z,7.13
2017-03-07T05:01:21.951Z,7.2
2017-03-07T05:02:21.979Z,7.19
2017-03-07T05:03:22.404Z,7.16
2017-03-07T05:04:22.448Z,7.2
2017-03-07T05:05:22.095Z,7.16
2017-03-07T05:06:22.901Z,7.13
2017-03-07T05:07:22.543Z,7.12
2017-03-07T05:08:22.582Z,7.12
2017-03-07T05:09:22.629Z,7.16
2017-03-07T05:10:22.263Z,7.09
2017-03-07T05:11:22.686Z,7.01
2017-03-07T05:12:22.340Z,7.01
2017-03-07T05:13:22.742Z,6.91
2017-03-07T05:14:23.194Z,6.9
2017-03-07T05:15:23.204Z,6.89
2017-03-07T05:16:22.483Z,6.86
2017-03-07T05:17:22.876Z,6.87
2017-03-07T05:18:22.520Z,6.79
2017-03-07T05:19:22.948Z,6.77
2017-03-07T05:20:22.996Z,6.77
2017-03-07T05:21:23.420Z,6.71
2017-03-07T05:22:23.438Z,6.83
2017-03-07T05:23:22.696Z,6.8
2017-03-07T05:24:23.111Z,6.83
2017-03-07T05:25:23.564Z,6.73
2017-03-07T05:26:22.816Z,6.72
2017-03-07T05:27:22.823Z,6.65
2017-03-07T05:28:23.257Z,6.73
2017-03-07T05:29:22.889Z,6.71
2017-03-07T05:30:23.315Z,6.69
2017-03-07T05:31:22.959Z,6.8
2017-03-07T05:32:23.376Z,6.69
2017-03-07T05:33:23.827Z,6.76
2017-03-07T05:34:23.855Z,6.76
2017-03-07T05:35:23.914Z,6.77
2017-03-07T05:36:23.508Z,6.79
2017-03-07T05:37:23.177Z,6.83
2017-03-07T05:38:23.199Z,6.73
2017-03-07T05:39:23.639Z,6.71
2017-03-07T05:40:23.643Z,6.71
2017-03-07T05:41:23.294Z,6.76
2017-03-07T05:42:23.722Z,6.72
2017-03-07T05:43:24.130Z,6.68
2017-03-07T05:44:23.384Z,6.63
2017-03-07T05:45:23.415Z,6.71
2017-03-07T05:46:23.465Z,6.71
2017-03-07T05:47:24.278Z,6.71
2017-03-07T05:48:23.523Z,6.69
2017-03-07T05:49:23.963Z,6.72
2017-03-07T05:50:23.981Z,6.72
2017-03-07T05:51:24.409Z,6.61
2017-03-07T05:52:24.044Z,6.69
2017-03-07T05:53:24.089Z,6.62
2017-03-07T05:54:23.727Z,6.66
2017-03-07T05:55:24.155Z,6.66
2017-03-07T05:56:24.187Z,6.71
2017-03-07T05:57:24.644Z,6.76
2017-03-07T05:58:24.670Z,6.77
2017-03-07T05:59:24.322Z,6.71
2017-03-07T06:00:24.336Z,6.83
2017-03-07T06:01:24.360Z,6.83
2017-03-07T06:02:23.993Z,6.83
2017-03-07T06:03:24.433Z,6.81
2017-03-07T06:04:24.062Z,6.86
2017-03-07T06:05:24.112Z,6.9
2017-03-07T06:06:24.520Z,6.94
2017-03-07T06:07:24.169Z,6.91
2017-03-07T06:08:24.199Z,6.97
2017-03-07T06:09:24.624Z,6.83
2017-03-07T06:10:24.269Z,6.97
2017-03-07T06:11:25.092Z,6.89
2017-03-07T06:12:24.330Z,6.91
2017-03-07T06:13:25.177Z,6.9
2017-03-07T06:14:24.792Z,6.94
2017-03-07T06:15:25.213Z,6.97
2017-03-07T06:16:24.849Z,6.91
2017-03-07T06:17:24.509Z,6.91
2017-03-07T06:18:24.526Z,6.95
2017-03-07T06:19:25.367Z,6.86
2017-03-07T06:20:24.592Z,6.94
2017-03-07T06:21:25.019Z,6.94
2017-03-07T06:22:24.664Z,6.86
2017-03-07T06:23:25.074Z,6.89
2017-03-07T06:24:27.051Z,6.72
2017-03-07T06:25:24.763Z,6.81
2017-03-07T06:26:25.200Z,6.79
2017-03-07T06:27:25.215Z,6.86
2017-03-07T06:28:25.654Z,6.8
2017-03-07T06:29:25.685Z,6.72
2017-03-07T06:30:24.930Z,6.72
2017-03-07T06:31:25.371Z,6.69
2017-03-07T06:32:25.008Z,6.76
2017-03-07T06:33:25.428Z,6.72
2017-03-07T06:34:25.459Z,6.65
2017-03-07T06:35:25.499Z,6.63
2017-03-07T06:36:25.921Z,6.62
2017-03-07T06:37:25.983Z,6.59
2017-03-07T06:38:25.611Z,6.72
2017-03-07T06:39:26.025Z,6.71
2017-03-07T06:40:26.061Z,6.66
2017-03-07T06:41:25.699Z,6.61
2017-03-07T06:42:25.331Z,6.62
2017-03-07T06:43:25.756Z,6.56
2017-03-07T06:44:25.396Z,6.58
2017-03-07T06:45:25.816Z,6.58
2017-03-07T06:46:25.884Z,6.54
2017-03-07T06:47:25.882Z,6.53
2017-03-07T06:48:25.924Z,6.58
2017-03-07T06:49:25.955Z,6.59
2017-03-07T06:50:25.986Z,6.51
2017-03-07T06:51:26.026Z,6.56
2017-03-07T06:52:25.661Z,6.44
2017-03-07T06:53:25.690Z,6.59
2017-03-07T06:54:25.749Z,6.44
2017-03-07T06:55:26.155Z,6.4
2017-03-07T06:56:26.582Z,6.46
2017-03-07T06:57:26.216Z,6.51
2017-03-07T06:58:25.861Z,6.4
2017-03-07T06:59:25.914Z,6.38
2017-03-07T07:00:25.929Z,6.46
2017-03-07T07:01:25.992Z,6.35
2017-03-07T07:02:25.989Z,6.43
2017-03-07T07:03:26.019Z,6.44
2017-03-07T07:04:26.454Z,6.43
2017-03-07T07:05:26.489Z,6.38
2017-03-07T07:06:26.142Z,6.43
2017-03-07T07:07:26.947Z,6.54
2017-03-07T07:08:26.614Z,6.48
2017-03-07T07:09:27.399Z,6.48
2017-03-07T07:10:26.257Z,6.5
2017-03-07T07:11:26.379Z,6.5
2017-03-07T07:12:26.729Z,6.56
2017-03-07T07:13:26.748Z,6.46
2017-03-07T07:14:27.180Z,6.62
2017-03-07T07:15:26.482Z,6.56
2017-03-07T07:16:26.847Z,6.61
2017-03-07T07:17:26.994Z,6.59
2017-03-07T07:18:27.119Z,6.63
2017-03-07T07:19:27.137Z,6.65
2017-03-07T07:20:26.747Z,6.59
2017-03-07T07:21:27.029Z,6.66
2017-03-07T07:22:26.926Z,6.61
2017-03-07T07:23:26.780Z,6.65
2017-03-07T07:24:26.756Z,6.65
2017-03-07T07:25:27.176Z,6.65
2017-03-07T07:26:27.199Z,6.68
2017-03-07T07:27:27.605Z,6.59
2017-03-07T07:28:28.775Z,6.62
2017-03-07T07:29:27.678Z,6.59
2017-03-07T07:30:27.710Z,6.65
2017-03-07T07:31:27.364Z,6.62
2017-03-07T07:32:26.986Z,6.63
2017-03-07T07:33:27.443Z,6.54
2017-03-07T07:34:27.069Z,6.59
2017-03-07T07:35:27.489Z,6.54
2017-03-07T07:36:27.115Z,6.63
2017-03-07T07:37:27.569Z,6.63
2017-03-07T07:38:28.020Z,6.56
2017-03-07T07:39:27.226Z,6.65
2017-03-07T07:40:27.722Z,6.54
2017-03-07T07:41:27.760Z,6.59
2017-03-07T07:42:27.320Z,6.62
2017-03-07T07:43:27.772Z,6.58
2017-03-07T07:44:27.775Z,6.51
2017-03-07T07:45:27.472Z,6.62
2017-03-07T07:46:27.560Z,6.53
2017-03-07T07:47:27.970Z,6.51
2017-03-07T07:48:27.524Z,6.48
2017-03-07T07:49:27.549Z,6.53
2017-03-07T07:50:27.978Z,6.58
2017-03-07T07:51:27.640Z,6.53
2017-03-07T07:52:27.794Z,6.48
2017-03-07T07:53:28.080Z,6.46
2017-03-07T07:54:28.118Z,6.54
2017-03-07T07:55:28.549Z,6.59
2017-03-07T07:56:27.785Z,6.51
2017-03-07T07:57:28.231Z,6.56
2017-03-07T07:58:28.265Z,6.59
2017-03-07T07:59:28.678Z,6.56
2017-03-07T08:00:28.313Z,6.51
2017-03-07T08:01:27.982Z,6.53
2017-03-07T08:02:28.658Z,6.54
2017-03-07T08:03:28.017Z,6.53
2017-03-07T08:04:28.450Z,6.51
2017-03-07T08:05:28.412Z,6.56
2017-03-07T08:06:28.220Z,6.46
2017-03-07T08:07:28.578Z,6.35
2017-03-07T08:08:28.186Z,6.38
2017-03-07T08:09:28.215Z,6.36
2017-03-07T08:10:28.655Z,6.4
2017-03-07T08:11:28.684Z,6.4
2017-03-07T08:12:28.335Z,6.33
2017-03-07T08:13:29.147Z,6.33
2017-03-07T08:14:28.393Z,6.43
2017-03-07T08:15:28.809Z,6.28
2017-03-07T08:16:28.466Z,6.26
2017-03-07T08:17:28.486Z,6.36
2017-03-07T08:18:28.935Z,6.33
2017-03-07T08:19:29.354Z,6.46
2017-03-07T08:20:28.975Z,6.32
2017-03-07T08:21:28.710Z,6.25
2017-03-07T08:22:28.680Z,6.29
2017-03-07T08:23:28.686Z,6.38
2017-03-07T08:24:28.715Z,6.35
2017-03-07T08:25:29.146Z,6.38
2017-03-07T08:26:28.773Z,6.4
2017-03-07T08:27:29.600Z,6.25
2017-03-07T08:28:29.655Z,6.43
2017-03-07T08:29:29.344Z,6.43
2017-03-07T08:30:29.720Z,6.38
2017-03-07T08:31:29.371Z,6.38
2017-03-07T08:32:29.794Z,6.35
2017-03-07T08:33:29.397Z,6.4
2017-03-07T08:34:29.080Z,6.36
2017-03-07T08:35:29.482Z,6.36
2017-03-07T08:36:29.137Z,6.41
2017-03-07T08:37:29.532Z,6.22
2017-03-07T08:38:29.589Z,6.41
2017-03-07T08:39:29.657Z,6.36
2017-03-07T08:40:30.022Z,6.29
2017-03-07T08:41:29.686Z,6.26
2017-03-07T08:42:29.307Z,6.22
2017-03-07T08:43:29.755Z,6.3
2017-03-07T08:44:29.772Z,6.28
2017-03-07T08:45:29.804Z,6.26
2017-03-07T08:46:29.446Z,6.3
2017-03-07T08:47:30.329Z,6.32
2017-03-07T08:48:29.944Z,6.19
2017-03-07T08:49:29.563Z,6.28
2017-03-07T08:50:29.967Z,6.26
2017-03-07T08:51:30.417Z,6.22
2017-03-07T08:52:29.729Z,6.32
2017-03-07T08:53:30.116Z,6.25
2017-03-07T08:54:30.112Z,6.3
2017-03-07T08:55:30.154Z,6.35
2017-03-07T08:56:29.791Z,6.36
2017-03-07T08:57:30.205Z,6.4
2017-03-07T08:58:29.853Z,6.19
2017-03-07T08:59:30.273Z,6.38
2017-03-07T09:00:30.303Z,6.4
2017-03-07T09:01:30.380Z,6.36
2017-03-07T09:02:31.409Z,6.4
2017-03-07T09:03:30.404Z,6.48
2017-03-07T09:04:30.518Z,6.58
2017-03-07T09:05:30.484Z,6.62
2017-03-07T09:06:30.510Z,6.58
2017-03-07T09:07:30.618Z,6.73
2017-03-07T09:08:30.751Z,6.72
2017-03-07T09:09:30.622Z,6.69
2017-03-07T09:10:31.040Z,6.68
2017-03-07T09:11:30.379Z,6.76
2017-03-07T09:12:30.326Z,6.72
2017-03-07T09:13:30.755Z,6.69
2017-03-07T09:14:30.400Z,6.68
2017-03-07T09:15:30.807Z,6.72
2017-03-07T09:16:31.187Z,6.69
2017-03-07T09:17:30.967Z,6.62
2017-03-07T09:18:30.941Z,6.54
2017-03-07T09:19:30.994Z,6.56
2017-03-07T09:20:30.762Z,6.61
2017-03-07T09:21:31.042Z,6.51
2017-03-07T09:22:30.665Z,6.65
2017-03-07T09:23:31.125Z,6.59
2017-03-07T09:24:30.948Z,6.48
2017-03-07T09:25:34.562Z,6.56
2017-03-07T09:26:33.145Z,6.5
2017-03-07T09:27:31.230Z,6.46
2017-03-07T09:28:31.272Z,6.44
2017-03-07T09:29:31.406Z,6.35
2017-03-07T09:30:30.929Z,6.38
2017-03-07T09:31:31.996Z,6.36
2017-03-07T09:32:31.387Z,6.44
2017-03-07T09:33:31.441Z,6.47
2017-03-07T09:34:31.079Z,6.44
2017-03-07T09:35:31.668Z,6.38
2017-03-07T09:36:31.514Z,6.36
2017-03-07T09:37:31.566Z,6.36
2017-03-07T09:38:31.197Z,6.38
2017-03-07T09:39:31.625Z,6.3
2017-03-07T09:40:32.047Z,6.3
2017-03-07T09:41:31.926Z,6.22
2017-03-07T09:42:33.523Z,6.22
2017-03-07T09:43:31.487Z,6.11
2017-03-07T09:44:31.406Z,6.18
2017-03-07T09:45:31.554Z,6.21
2017-03-07T09:46:32.254Z,6.22
2017-03-07T09:47:32.416Z,6.16
2017-03-07T09:48:31.628Z,6.18
2017-03-07T09:49:31.556Z,6.18
2017-03-07T09:50:31.785Z,6.14
2017-03-07T09:51:31.742Z,6.16
2017-03-07T09:52:32.082Z,6.21
2017-03-07T09:53:31.699Z,6.26
2017-03-07T09:54:32.159Z,6.26
2017-03-07T09:55:32.665Z,6.25
2017-03-07T09:56:31.919Z,6.38
2017-03-07T09:57:32.958Z,6.33
2017-03-07T09:58:31.865Z,6.28
2017-03-07T09:59:32.310Z,6.35
2017-03-07T10:00:32.741Z,6.29
2017-03-07T10:01:32.693Z,6.19
2017-03-07T10:02:32.271Z,6.33
2017-03-07T10:03:32.456Z,6.38
2017-03-07T10:04:32.876Z,6.43
2017-03-07T10:05:32.937Z,6.35
2017-03-07T10:06:32.967Z,6.41
2017-03-07T10:07:32.634Z,6.46
2017-03-07T10:08:32.227Z,6.41
2017-03-07T10:09:32.243Z,6.43
2017-03-07T10:10:33.079Z,6.4
2017-03-07T10:11:33.516Z,6.46
2017-03-07T10:12:33.166Z,6.47
2017-03-07T10:13:34.441Z,6.38
2017-03-07T10:14:33.189Z,6.41
2017-03-07T10:15:32.850Z,6.44
2017-03-07T10:16:32.867Z,6.44
2017-03-07T10:17:32.983Z,6.41
2017-03-07T10:18:34.858Z,6.41
2017-03-07T10:19:33.293Z,6.35
2017-03-07T10:20:33.385Z,6.38
2017-03-07T10:21:33.035Z,6.4
2017-03-07T10:22:33.050Z,6.3
2017-03-07T10:23:33.178Z,6.36
2017-03-07T10:24:33.129Z,6.35
2017-03-07T10:25:32.832Z,6.38
2017-03-07T10:26:33.274Z,6.36
2017-03-07T10:27:32.823Z,6.36
2017-03-07T10:28:33.622Z,6.38
2017-03-07T10:29:33.289Z,6.29
2017-03-07T10:30:33.329Z,6.33
2017-03-07T10:31:32.959Z,6.35
2017-03-07T10:32:33.791Z,6.35
2017-03-07T10:33:33.846Z,6.47
2017-03-07T10:34:33.458Z,6.44
2017-03-07T10:35:33.148Z,6.38
2017-03-07T10:36:33.535Z,6.43
2017-03-07T10:37:33.554Z,6.44
2017-03-07T10:38:33.975Z,6.43
2017-03-07T10:39:33.611Z,6.54
2017-03-07T10:40:33.678Z,6.58
2017-03-07T10:41:33.707Z,6.58
2017-03-07T10:42:33.733Z,6.51
2017-03-07T10:43:33.761Z,6.58
2017-03-07T10:44:34.173Z,6.51
2017-03-07T10:45:34.288Z,6.56
2017-03-07T10:46:33.854Z,6.59
2017-03-07T10:47:33.895Z,6.58
2017-03-07T10:48:34.064Z,6.53
2017-03-07T10:49:33.965Z,6.63
2017-03-07T10:50:33.652Z,6.58
2017-03-07T10:51:33.623Z,6.59
2017-03-07T10:52:33.661Z,6.58
2017-03-07T10:53:33.708Z,6.59
2017-03-07T10:54:34.121Z,6.68
2017-03-07T10:55:33.795Z,6.63
2017-03-07T10:56:34.623Z,6.61
2017-03-07T10:57:34.219Z,6.61
2017-03-07T10:58:34.254Z,6.62
2017-03-07T10:59:35.050Z,6.63
2017-03-07T11:00:34.335Z,6.68
2017-03-07T11:01:33.972Z,6.61
2017-03-07T11:02:34.779Z,6.71
2017-03-07T11:03:34.024Z,6.69
2017-03-07T11:04:34.459Z,6.59
2017-03-07T11:05:34.227Z,6.63
2017-03-07T11:06:34.904Z,6.65
2017-03-07T11:07:34.969Z,6.65
2017-03-07T11:08:34.612Z,6.66
2017-03-07T11:09:34.260Z,6.63
2017-03-07T11:10:34.659Z,6.68
2017-03-07T11:11:35.096Z,6.62
2017-03-07T11:12:34.325Z,6.71
2017-03-07T11:13:35.151Z,6.72
2017-03-07T11:14:34.789Z,6.68
2017-03-07T11:15:34.855Z,6.65
2017-03-07T11:16:34.460Z,6.58
2017-03-07T11:17:34.878Z,6.63
2017-03-07T11:18:34.922Z,6.56
2017-03-07T11:19:34.667Z,6.46
2017-03-07T11:20:34.603Z,6.41
2017-03-07T11:21:35.410Z,6.38
2017-03-07T11:22:35.058Z,6.41
2017-03-07T11:23:34.701Z,6.35
2017-03-07T11:24:35.118Z,6.36
2017-03-07T11:25:35.166Z,6.36
2017-03-07T11:26:35.199Z,6.35
2017-03-07T11:27:35.216Z,6.29
2017-03-07T11:28:35.658Z,6.21
2017-03-07T11:29:35.678Z,6.21
2017-03-07T11:30:35.716Z,6.14
2017-03-07T11:31:35.349Z,6.21
2017-03-07T11:32:35.463Z,6.07
2017-03-07T11:33:35.020Z,6.01
2017-03-07T11:34:35.479Z,5.96
2017-03-07T11:35:35.483Z,6.06
2017-03-07T11:36:35.911Z,5.98
2017-03-07T11:37:35.546Z,6.11
2017-03-07T11:38:36.005Z,5.96
2017-03-07T11:39:36.014Z,5.96
2017-03-07T11:40:35.653Z,5.86
2017-03-07T11:41:35.706Z,5.92
2017-03-07T11:42:35.722Z,5.89
2017-03-07T11:43:35.362Z,5.91
2017-03-07T11:44:35.782Z,5.95
2017-03-07T11:45:35.808Z,5.95
2017-03-07T11:46:35.865Z,5.98
2017-03-07T11:47:36.274Z,5.95
2017-03-07T11:48:35.906Z,5.92
2017-03-07T11:49:35.946Z,5.98
2017-03-07T11:50:35.612Z,5.91
2017-03-07T11:51:35.621Z,5.92
2017-03-07T11:52:36.055Z,5.85
2017-03-07T11:53:36.495Z,5.88
2017-03-07T11:54:36.106Z,5.92
2017-03-07T11:55:36.561Z,5.95
2017-03-07T11:56:36.176Z,5.93
2017-03-07T11:57:36.626Z,5.92
2017-03-07T11:58:36.261Z,5.89
2017-03-07T11:59:36.696Z,5.86
2017-03-07T12:00:36.323Z,5.89
2017-03-07T12:01:36.340Z,5.92
2017-03-07T12:02:36.375Z,5.93
2017-03-07T12:03:36.028Z,5.88
2017-03-07T12:04:36.047Z,5.95
2017-03-07T12:05:36.482Z,6
2017-03-07T12:06:36.915Z,6
2017-03-07T12:07:36.189Z,6.01
2017-03-07T12:08:36.803Z,5.95
2017-03-07T12:09:36.209Z,5.92
2017-03-07T12:10:36.656Z,6
2017-03-07T12:11:36.667Z,5.98
2017-03-07T12:12:36.309Z,6.04
2017-03-07T12:13:36.732Z,6.04
2017-03-07T12:14:36.378Z,6.01
2017-03-07T12:15:37.209Z,6.09
2017-03-07T12:16:36.836Z,6.04
2017-03-07T12:17:36.478Z,6.13
2017-03-07T12:18:36.895Z,6.04
2017-03-07T12:19:37.359Z,6.18
2017-03-07T12:20:36.968Z,6.16
2017-03-07T12:21:36.621Z,6.1
2017-03-07T12:22:36.644Z,6.09
2017-03-07T12:23:37.541Z,6.13
2017-03-07T12:24:36.709Z,6.26
2017-03-07T12:25:37.142Z,6.19
2017-03-07T12:26:37.562Z,6.21
2017-03-07T12:27:37.266Z,6.28
2017-03-07T12:28:37.631Z,6.21
2017-03-07T12:29:37.270Z,6.29
2017-03-07T12:30:36.911Z,6.22
2017-03-07T12:31:37.335Z,6.25
2017-03-07T12:32:37.752Z,6.25
2017-03-07T12:33:36.999Z,6.3
2017-03-07T12:34:37.430Z,6.35
2017-03-07T12:35:37.080Z,6.35
2017-03-07T12:36:37.120Z,6.21
2017-03-07T12:37:37.138Z,6.28
2017-03-07T12:38:37.583Z,6.4
2017-03-07T12:39:37.597Z,6.36
2017-03-07T12:40:37.243Z,6.36
2017-03-07T12:41:37.404Z,6.35
2017-03-07T12:42:37.311Z,6.36
2017-03-07T12:43:37.735Z,6.4
2017-03-07T12:44:37.773Z,6.35
2017-03-07T12:45:37.403Z,6.33
2017-03-07T12:46:37.433Z,6.25
2017-03-07T12:47:37.863Z,6.33
2017-03-07T12:48:37.898Z,6.4
2017-03-07T12:49:38.353Z,6.5
2017-03-07T12:50:37.957Z,6.54
2017-03-07T12:51:37.679Z,6.46
2017-03-07T12:52:37.633Z,6.54
2017-03-07T12:53:38.463Z,6.59
2017-03-07T12:54:37.702Z,6.65
2017-03-07T12:55:38.127Z,6.71
2017-03-07T12:56:37.785Z,6.68
2017-03-07T12:57:37.816Z,6.71
2017-03-07T12:58:37.855Z,6.83
2017-03-07T12:59:37.873Z,6.77
2017-03-07T13:00:38.344Z,6.86
2017-03-07T13:01:38.415Z,6.89
2017-03-07T13:02:38.378Z,6.87
2017-03-07T13:03:38.046Z,6.83
2017-03-07T13:04:38.818Z,6.98
2017-03-07T13:05:38.476Z,6.91
2017-03-07T13:06:38.105Z,6.86
2017-03-07T13:07:38.669Z,6.94
2017-03-07T13:08:38.215Z,6.89
2017-03-07T13:09:38.248Z,7.02
2017-03-07T13:11:52.750Z,7.02
2017-03-07T13:12:04.976Z,7.02
2017-03-07T13:13:04.934Z,6.87
2017-03-07T13:14:05.308Z,7.01
2017-03-07T13:15:05.106Z,6.99
2017-03-07T13:16:04.638Z,7.09
2017-03-07T13:17:05.446Z,6.97
2017-03-07T13:18:04.719Z,7.01
2017-03-07T13:19:05.057Z,7.12
2017-03-07T13:20:05.072Z,7.04
2017-03-07T13:21:05.099Z,7.12
2017-03-07T13:22:05.538Z,7.07
2017-03-07T13:23:05.612Z,7.05
2017-03-07T13:24:04.802Z,7.12
2017-03-07T13:25:04.844Z,7.07
2017-03-07T13:26:05.273Z,7.07
2017-03-07T13:27:04.935Z,7.08
2017-03-07T13:28:05.331Z,7.12
2017-03-07T13:29:05.361Z,7.09
2017-03-07T13:30:05.469Z,7.08
2017-03-07T13:31:05.436Z,7.05